Belfield, North Dakota
Current Conditions -  °F | °C
As of 4:56 AM on Thursday 29 Jan 2015 (Local Time) from KDIK Reporting Station
Broken Clouds Broken Clouds  
Wind Chill: 16°   Ceiling: 1600
Heat Index: 28°   Visibility: 10mi
Dew Point: 21°   Wind: 17mph
Humidity: 75%   Direction: 290°WNW
Pressure: 30.35"   Gusts: NA
Location:  46.89°N, 103.2°W
Report Text: KDIK 291156Z AUTO 29015KT 10SM BKN016 M02/M06 A3035 RMK AO2 SLP310 T10221061 10006 21022 51013
Loading
Personal Weather Stations






























Interactive Weather Map New forecast layout! Learn more

10-Day Weather Forecast

Advertisements
Track Severe Weather on mobile